Terminal Aerodrome Forecast
Issued by NWS

Home | Current Version | Previous Version | Text Only | Print | Product List | Glossary On
Versions: 1 2 3 4 5 6 7 8 9 10 11 12 13 14 15 16 17
000
FTUS46 KSTO 220757 AAB
TAFRDD
TAF AMD
KRDD 220757Z 2208/2306 00000KT P6SM BKN250
      TEMPO 2208/2212 3/4SM BR VV001
     FM221800 33005KT P6SM SCT250=

USA.gov is the U.S. government's official web portal to all federal, state and local government web resources and services.